createdAt,value
2023-02-09T00:01:29.472Z,1.80
2023-02-09T00:03:59.452Z,1.75
2023-02-09T00:06:30.050Z,1.81
2023-02-09T00:08:59.802Z,1.63
2023-02-09T00:11:49.693Z,1.74
2023-02-09T00:14:21.718Z,1.74
2023-02-09T00:16:51.950Z,1.77
2023-02-09T00:19:22.071Z,1.75
2023-02-09T00:21:49.985Z,1.81
2023-02-09T00:24:18.525Z,1.67
2023-02-09T00:26:46.891Z,1.72
2023-02-09T00:29:15.227Z,1.69
2023-02-09T00:31:43.977Z,1.77
2023-02-09T00:34:12.164Z,1.70
2023-02-09T00:36:40.156Z,1.73
2023-02-09T00:39:08.396Z,1.71
2023-02-09T00:41:55.724Z,1.66
2023-02-09T00:44:23.711Z,1.72
2023-02-09T00:46:52.348Z,1.78
2023-02-09T00:49:21.328Z,1.86
2023-02-09T00:51:49.921Z,1.85
2023-02-09T00:54:18.003Z,1.91
2023-02-09T00:56:47.330Z,1.91
2023-02-09T00:59:15.578Z,2.03
2023-02-09T01:01:43.737Z,1.90
2023-02-09T01:04:11.316Z,1.84
2023-02-09T01:06:38.790Z,1.94
2023-02-09T01:09:06.913Z,1.86
2023-02-09T01:11:34.568Z,1.87
2023-02-09T01:14:04.487Z,1.93
2023-02-09T01:16:32.816Z,1.98
2023-02-09T01:19:02.793Z,1.95
2023-02-09T01:21:31.530Z,1.82
2023-02-09T01:23:59.815Z,1.99
2023-02-09T01:26:27.860Z,1.92
2023-02-09T01:28:56.489Z,1.88
2023-02-09T01:31:31.545Z,1.76
2023-02-09T01:34:02.546Z,1.76
2023-02-09T01:36:31.499Z,1.50
2023-02-09T01:39:02.565Z,1.65
2023-02-09T01:41:31.613Z,1.69
2023-02-09T01:44:06.937Z,1.71
2023-02-09T01:46:36.701Z,1.63
2023-02-09T01:49:08.844Z,1.65
2023-02-09T01:51:41.703Z,1.53
2023-02-09T01:54:15.746Z,1.56
2023-02-09T01:56:48.510Z,1.55
2023-02-09T01:59:17.671Z,1.43
2023-02-09T02:01:46.170Z,1.48
2023-02-09T02:04:14.954Z,1.45
2023-02-09T02:06:43.373Z,1.50
2023-02-09T02:09:17.016Z,1.52
2023-02-09T02:11:47.702Z,1.54
2023-02-09T02:14:37.142Z,1.44
2023-02-09T02:17:46.801Z,1.42
2023-02-09T02:20:41.900Z,1.43
2023-02-09T02:23:13.034Z,1.29
2023-02-09T02:25:49.526Z,1.42
2023-02-09T02:28:55.110Z,1.50
2023-02-09T02:31:55.465Z,1.52
2023-02-09T02:34:42.949Z,1.45
2023-02-09T02:37:32.804Z,1.45
2023-02-09T02:40:25.607Z,1.53
2023-02-09T02:43:07.665Z,1.47
2023-02-09T02:46:11.905Z,1.46
2023-02-09T02:49:01.389Z,1.36
2023-02-09T02:51:37.408Z,1.40
2023-02-09T02:54:09.585Z,1.45
2023-02-09T02:56:42.872Z,1.35
2023-02-09T02:59:17.932Z,1.41
2023-02-09T03:02:27.037Z,1.44
2023-02-09T03:04:57.083Z,1.26
2023-02-09T03:07:25.231Z,1.28
2023-02-09T03:09:55.664Z,1.32
2023-02-09T03:12:35.401Z,1.25
2023-02-09T03:15:15.230Z,1.30
2023-02-09T03:17:52.380Z,1.28
2023-02-09T03:20:37.960Z,1.20
2023-02-09T03:23:10.444Z,1.19
2023-02-09T03:25:45.109Z,1.19
2023-02-09T03:28:19.788Z,1.24
2023-02-09T03:30:50.150Z,1.21
2023-02-09T03:33:27.589Z,1.23
2023-02-09T03:35:59.745Z,1.21
2023-02-09T03:38:27.752Z,1.21
2023-02-09T03:40:55.964Z,1.21
2023-02-09T03:43:46.991Z,1.18
2023-02-09T03:46:15.109Z,1.24
2023-02-09T03:48:42.658Z,1.15
2023-02-09T03:51:10.467Z,1.22
2023-02-09T03:53:39.013Z,1.23
2023-02-09T03:56:10.051Z,1.07
2023-02-09T03:58:37.919Z,1.07
2023-02-09T04:01:10.524Z,1.08
2023-02-09T04:03:39.909Z,0.95
2023-02-09T04:06:10.123Z,1.05
2023-02-09T04:08:38.220Z,1.02
2023-02-09T04:11:05.833Z,0.96
2023-02-09T04:13:33.581Z,0.98
2023-02-09T04:16:01.591Z,0.98
2023-02-09T04:18:30.114Z,0.92
2023-02-09T04:20:58.792Z,0.91
2023-02-09T04:23:26.508Z,0.83
2023-02-09T04:25:54.331Z,0.85
2023-02-09T04:28:22.681Z,0.82
2023-02-09T04:30:56.015Z,0.77
2023-02-09T04:33:25.245Z,0.79
2023-02-09T04:35:53.222Z,0.79
2023-02-09T04:38:22.384Z,0.76
2023-02-09T04:40:51.905Z,0.82
2023-02-09T04:43:20.521Z,0.71
2023-02-09T04:45:48.802Z,0.77
2023-02-09T04:48:18.969Z,0.74
2023-02-09T04:50:47.695Z,0.76
2023-02-09T04:53:16.590Z,0.70
2023-02-09T04:55:45.549Z,0.68
2023-02-09T04:58:37.029Z,0.66
2023-02-09T05:01:05.968Z,0.71
2023-02-09T05:03:34.242Z,0.68
2023-02-09T05:06:04.759Z,0.69
2023-02-09T05:08:32.994Z,0.68
2023-02-09T05:11:01.259Z,0.55
2023-02-09T05:13:29.723Z,0.50
2023-02-09T05:15:57.251Z,0.32
2023-02-09T05:18:25.719Z,0.25
2023-02-09T05:20:53.808Z,0.17
2023-02-09T05:23:21.933Z,0.16
2023-02-09T05:25:49.447Z,0.10
2023-02-09T05:28:17.340Z,0.05
2023-02-09T05:30:45.734Z,0.08
2023-02-09T05:33:13.425Z,0.04
2023-02-09T05:35:41.448Z,0.10
2023-02-09T05:38:09.436Z,0.06
2023-02-09T05:40:37.432Z,0.10
2023-02-09T05:43:05.858Z,0.04
2023-02-09T05:45:33.872Z,-0.08
2023-02-09T05:48:01.796Z,-0.06
2023-02-09T05:50:29.979Z,-0.04
2023-02-09T05:53:01.149Z,0.06
2023-02-09T05:55:29.272Z,0.01
2023-02-09T05:57:57.139Z,-0.15
2023-02-09T06:00:27.108Z,-0.11
2023-02-09T06:02:54.792Z,-0.09
2023-02-09T06:05:22.937Z,-0.21
2023-02-09T06:07:51.629Z,-0.14
2023-02-09T06:10:20.649Z,-0.23
2023-02-09T06:12:48.274Z,-0.38
2023-02-09T06:15:16.678Z,-0.47
2023-02-09T06:17:45.404Z,-0.27
2023-02-09T06:20:13.170Z,-0.27
2023-02-09T06:22:40.871Z,-0.27
2023-02-09T06:25:09.592Z,-0.20
2023-02-09T06:27:37.537Z,-0.25
2023-02-09T06:30:06.427Z,-0.24
2023-02-09T06:32:34.574Z,-0.19
2023-02-09T06:35:02.215Z,-0.14
2023-02-09T06:37:30.226Z,-0.12
2023-02-09T06:39:57.819Z,-0.20
2023-02-09T06:42:43.768Z,-0.12
2023-02-09T06:45:13.499Z,-0.25
2023-02-09T06:47:45.275Z,-0.30
2023-02-09T06:50:14.901Z,-0.18
2023-02-09T06:52:43.882Z,-0.08
2023-02-09T06:55:12.897Z,-0.02
2023-02-09T06:57:41.068Z,0.07
2023-02-09T07:00:10.228Z,0.16
2023-02-09T07:02:38.218Z,0.20
2023-02-09T07:05:06.083Z,0.30
2023-02-09T07:07:33.638Z,0.42
2023-02-09T07:10:01.668Z,0.54
2023-02-09T07:12:29.368Z,0.72
2023-02-09T07:14:57.796Z,0.82
2023-02-09T07:17:25.882Z,0.92
2023-02-09T07:19:53.859Z,0.93
2023-02-09T07:22:22.807Z,1.19
2023-02-09T07:24:50.427Z,1.15
2023-02-09T07:27:19.066Z,1.12
2023-02-09T07:29:47.677Z,1.08
2023-02-09T07:32:16.251Z,1.22
2023-02-09T07:34:43.984Z,1.33
2023-02-09T07:37:11.613Z,1.30
2023-02-09T07:39:39.257Z,1.55
2023-02-09T07:42:06.951Z,1.63
2023-02-09T07:44:49.433Z,1.85
2023-02-09T07:47:27.283Z,1.77
2023-02-09T07:50:07.277Z,1.77
2023-02-09T07:52:34.793Z,1.72
2023-02-09T07:55:03.993Z,1.82
2023-02-09T07:57:33.114Z,1.83
2023-02-09T08:00:00.621Z,2.03
2023-02-09T08:02:35.130Z,2.18
2023-02-09T08:05:04.360Z,2.22
2023-02-09T08:07:32.345Z,2.41
2023-02-09T08:09:59.974Z,2.46
2023-02-09T08:12:48.615Z,2.76
2023-02-09T08:15:21.345Z,2.82
2023-02-09T08:17:55.674Z,2.68
2023-02-09T08:20:27.812Z,2.85
2023-02-09T08:23:04.145Z,2.90
2023-02-09T08:25:32.992Z,2.78
2023-02-09T08:28:12.576Z,3.01
2023-02-09T08:30:40.255Z,2.89
2023-02-09T08:33:07.850Z,3.02
2023-02-09T08:35:35.436Z,2.92
2023-02-09T08:38:04.090Z,3.09
2023-02-09T08:40:32.896Z,3.16
2023-02-09T08:43:01.481Z,3.82
2023-02-09T08:45:29.202Z,3.81
2023-02-09T08:48:00.718Z,3.50
2023-02-09T08:50:28.756Z,3.89
2023-02-09T08:52:58.001Z,3.87
2023-02-09T08:55:26.057Z,3.87
2023-02-09T08:57:54.115Z,3.55
2023-02-09T09:00:22.193Z,3.78
2023-02-09T09:02:49.857Z,4.29
2023-02-09T09:05:17.855Z,4.33
2023-02-09T09:07:45.487Z,4.65
2023-02-09T09:10:13.823Z,4.62
2023-02-09T09:12:41.773Z,5.19
2023-02-09T09:15:10.268Z,6.32
2023-02-09T09:17:37.940Z,6.91
2023-02-09T09:20:07.044Z,7.36
2023-02-09T09:22:35.486Z,7.56
2023-02-09T09:25:04.868Z,8.24
2023-02-09T09:27:35.021Z,8.09
2023-02-09T09:30:05.375Z,7.88
2023-02-09T09:32:33.507Z,8.24
2023-02-09T09:35:03.445Z,9.25
2023-02-09T09:37:31.499Z,8.88
2023-02-09T09:40:00.614Z,8.54
2023-02-09T09:42:36.362Z,8.80
2023-02-09T09:45:07.881Z,8.81
2023-02-09T09:47:39.448Z,9.13
2023-02-09T09:50:17.796Z,9.07
2023-02-09T09:52:56.425Z,9.29
2023-02-09T09:55:28.988Z,8.99
2023-02-09T09:58:01.625Z,9.28
2023-02-09T10:00:36.260Z,9.26
2023-02-09T10:03:04.974Z,9.88
2023-02-09T10:05:40.233Z,9.47
2023-02-09T10:08:10.954Z,9.32
2023-02-09T10:10:49.719Z,9.49
2023-02-09T10:13:40.074Z,9.20
2023-02-09T10:16:21.003Z,9.42
2023-02-09T10:18:54.496Z,9.71
2023-02-09T10:21:28.342Z,10.26
2023-02-09T10:24:02.007Z,11.26
2023-02-09T10:26:33.889Z,11.17
2023-02-09T10:29:25.811Z,11.91
2023-02-09T10:31:58.961Z,10.85
2023-02-09T10:34:41.091Z,9.94
2023-02-09T10:37:15.069Z,9.70
2023-02-09T10:39:42.851Z,8.95
2023-02-09T10:42:21.820Z,9.87
2023-02-09T10:44:53.771Z,10.80
2023-02-09T10:47:21.238Z,10.32
2023-02-09T10:50:11.234Z,10.12
2023-02-09T10:52:44.854Z,9.59
2023-02-09T10:55:25.728Z,9.41
2023-02-09T10:58:04.968Z,9.60
2023-02-09T11:00:46.073Z,9.72
2023-02-09T11:03:20.780Z,9.96
2023-02-09T11:06:00.110Z,10.08
2023-02-09T11:08:47.425Z,10.33
2023-02-09T11:11:24.746Z,10.02
2023-02-09T11:13:52.547Z,10.24
2023-02-09T11:16:32.409Z,10.27
2023-02-09T11:19:15.166Z,10.83
2023-02-09T11:21:46.539Z,11.16
2023-02-09T11:24:19.862Z,10.75
2023-02-09T11:26:54.186Z,10.61
2023-02-09T11:29:30.880Z,10.05
2023-02-09T11:32:18.612Z,10.44
2023-02-09T11:35:04.785Z,11.40
2023-02-09T11:37:59.410Z,11.15
2023-02-09T11:40:37.248Z,11.01
2023-02-09T11:43:15.599Z,11.30
2023-02-09T11:46:04.607Z,11.74
2023-02-09T11:48:37.099Z,12.08
2023-02-09T11:51:04.800Z,12.36
2023-02-09T11:53:56.706Z,11.31
2023-02-09T11:56:28.463Z,10.98
2023-02-09T11:59:08.098Z,11.88
2023-02-09T12:01:41.505Z,12.27
2023-02-09T12:04:24.740Z,12.42
2023-02-09T12:07:03.967Z,11.99
2023-02-09T12:09:52.050Z,11.52
2023-02-09T12:12:33.103Z,12.22
2023-02-09T12:15:10.570Z,12.44
2023-02-09T12:17:57.450Z,12.66
2023-02-09T12:20:27.980Z,12.87
2023-02-09T12:23:01.532Z,13.07
2023-02-09T12:25:51.651Z,13.00
2023-02-09T12:28:35.067Z,12.92
2023-02-09T12:31:07.415Z,13.29
2023-02-09T12:33:39.724Z,13.23
2023-02-09T12:36:08.107Z,14.08
2023-02-09T12:39:03.872Z,12.76
2023-02-09T12:41:35.413Z,12.46
2023-02-09T12:44:11.916Z,12.84
2023-02-09T12:46:48.411Z,12.94
2023-02-09T12:49:21.012Z,13.77
2023-02-09T12:51:54.624Z,13.92
2023-02-09T12:54:52.332Z,14.63
2023-02-09T12:57:22.810Z,14.43
2023-02-09T13:00:03.559Z,14.52
2023-02-09T13:02:49.689Z,15.02
2023-02-09T13:05:39.996Z,14.75
2023-02-09T13:08:13.776Z,14.63
2023-02-09T13:10:44.763Z,14.30
2023-02-09T13:13:17.472Z,14.89
2023-02-09T13:16:07.478Z,15.01
2023-02-09T13:19:05.644Z,15.41
2023-02-09T13:21:57.755Z,14.68
2023-02-09T13:24:56.650Z,14.54
2023-02-09T13:27:26.514Z,14.51
2023-02-09T13:29:59.448Z,13.48
2023-02-09T13:33:09.092Z,14.97
2023-02-09T13:36:01.814Z,14.69
2023-02-09T13:38:33.875Z,14.42
2023-02-09T13:41:02.790Z,15.02
2023-02-09T13:43:40.384Z,15.48
2023-02-09T13:46:24.698Z,14.49
2023-02-09T13:48:52.831Z,14.70
2023-02-09T13:51:21.116Z,15.09
2023-02-09T13:53:56.939Z,16.17
2023-02-09T13:56:26.309Z,15.71
2023-02-09T13:58:56.426Z,16.58
2023-02-09T14:01:36.357Z,16.19
2023-02-09T14:04:11.263Z,17.29
2023-02-09T14:06:50.660Z,18.33
2023-02-09T14:09:25.100Z,19.29
2023-02-09T14:12:12.792Z,20.07
2023-02-09T14:15:09.275Z,20.16
2023-02-09T14:17:39.045Z,21.39
2023-02-09T14:20:21.477Z,21.14
2023-02-09T14:23:00.382Z,19.82
2023-02-09T14:25:31.348Z,20.49
2023-02-09T14:27:59.098Z,19.17
2023-02-09T14:30:32.129Z,18.80
2023-02-09T14:33:03.452Z,19.05
2023-02-09T14:35:39.646Z,20.11
2023-02-09T14:38:42.730Z,19.86
2023-02-09T14:41:30.444Z,20.99
2023-02-09T14:44:00.340Z,20.30
2023-02-09T14:46:45.522Z,21.09
2023-02-09T14:49:13.605Z,19.51
2023-02-09T14:51:42.857Z,20.44
2023-02-09T14:54:22.989Z,20.65
2023-02-09T14:56:53.346Z,20.83
2023-02-09T14:59:22.103Z,20.23
2023-02-09T15:01:53.478Z,19.47
2023-02-09T15:04:22.406Z,18.89
2023-02-09T15:07:00.712Z,19.43
2023-02-09T15:09:37.908Z,18.33
2023-02-09T15:12:07.214Z,17.78
2023-02-09T15:14:46.387Z,18.31
2023-02-09T15:17:15.542Z,17.68
2023-02-09T15:19:45.211Z,14.56
2023-02-09T15:22:16.310Z,13.16
2023-02-09T15:24:46.504Z,12.11
2023-02-09T15:27:26.223Z,11.10
2023-02-09T15:29:58.982Z,10.49
2023-02-09T15:32:29.324Z,9.94
2023-02-09T15:34:56.902Z,9.23
2023-02-09T15:37:35.049Z,8.71
2023-02-09T15:40:12.957Z,8.32
2023-02-09T15:43:01.169Z,7.79
2023-02-09T15:45:49.559Z,7.85
2023-02-09T15:48:17.203Z,7.70
2023-02-09T15:50:48.363Z,7.60
2023-02-09T15:53:19.392Z,7.57
2023-02-09T15:55:48.381Z,7.48
2023-02-09T15:58:20.654Z,7.41
2023-02-09T16:00:48.929Z,7.25
2023-02-09T16:03:19.343Z,7.27
2023-02-09T16:05:51.038Z,6.76
2023-02-09T16:08:28.306Z,6.70
2023-02-09T16:10:57.500Z,6.46
2023-02-09T16:13:26.728Z,6.45
2023-02-09T16:15:58.247Z,6.57
2023-02-09T16:18:32.531Z,6.34
2023-02-09T16:21:00.302Z,6.08
2023-02-09T16:23:29.299Z,5.99
2023-02-09T16:26:01.629Z,5.97
2023-02-09T16:28:31.253Z,5.95
2023-02-09T16:30:59.813Z,5.99
2023-02-09T16:33:27.508Z,5.99
2023-02-09T16:35:58.948Z,5.82
2023-02-09T16:38:27.356Z,5.79
2023-02-09T16:40:56.526Z,5.81
2023-02-09T16:43:24.834Z,5.68
2023-02-09T16:46:03.330Z,5.59
2023-02-09T16:48:34.660Z,5.52
2023-02-09T16:51:03.056Z,5.47
2023-02-09T16:53:37.173Z,5.40
2023-02-09T16:56:10.461Z,5.17
2023-02-09T16:58:39.876Z,5.19
2023-02-09T17:01:17.946Z,5.15
2023-02-09T17:03:52.224Z,5.17
2023-02-09T17:06:23.266Z,5.08
2023-02-09T17:08:51.296Z,5.08
2023-02-09T17:11:22.272Z,4.98
2023-02-09T17:13:50.506Z,4.97
2023-02-09T17:16:22.060Z,4.90
2023-02-09T17:18:53.888Z,4.84
2023-02-09T17:21:27.719Z,4.60
2023-02-09T17:23:59.360Z,4.64
2023-02-09T17:26:28.297Z,4.63
2023-02-09T17:28:56.209Z,4.54
2023-02-09T17:31:28.848Z,4.36
2023-02-09T17:33:59.761Z,4.26
2023-02-09T17:36:29.531Z,4.21
2023-02-09T17:38:59.719Z,4.02
2023-02-09T17:41:34.009Z,4.12
2023-02-09T17:44:22.241Z,4.03
2023-02-09T17:46:55.432Z,4.04
2023-02-09T17:49:23.476Z,4.09
2023-02-09T17:51:53.041Z,4.03
2023-02-09T17:54:21.448Z,4.05
2023-02-09T17:56:49.513Z,3.97
2023-02-09T17:59:19.956Z,3.90
2023-02-09T18:01:51.669Z,3.82
2023-02-09T18:04:26.885Z,3.97
2023-02-09T18:06:57.540Z,3.88
2023-02-09T18:09:26.365Z,3.74
2023-02-09T18:12:03.978Z,3.85
2023-02-09T18:14:33.607Z,3.87
2023-02-09T18:17:02.747Z,3.84
2023-02-09T18:19:33.104Z,3.81
2023-02-09T18:22:02.412Z,3.73
2023-02-09T18:24:32.563Z,3.69
2023-02-09T18:27:01.074Z,3.73
2023-02-09T18:29:30.357Z,3.71
2023-02-09T18:32:03.072Z,3.69
2023-02-09T18:34:31.136Z,3.69
2023-02-09T18:36:59.498Z,3.68
2023-02-09T18:39:27.112Z,3.70
2023-02-09T18:41:56.302Z,3.63
2023-02-09T18:44:29.190Z,3.51
2023-02-09T18:46:58.101Z,3.40
2023-02-09T18:49:25.849Z,3.30
2023-02-09T18:51:53.947Z,3.16
2023-02-09T18:54:22.235Z,2.96
2023-02-09T18:56:50.416Z,2.92
2023-02-09T18:59:18.526Z,2.92
2023-02-09T19:01:46.868Z,2.83
2023-02-09T19:04:15.012Z,2.79
2023-02-09T19:06:42.562Z,2.82
2023-02-09T19:09:11.291Z,2.77
2023-02-09T19:11:39.037Z,2.71
2023-02-09T19:14:26.417Z,2.69
2023-02-09T19:16:54.735Z,2.62
2023-02-09T19:19:22.731Z,2.70
2023-02-09T19:21:54.528Z,2.70
2023-02-09T19:24:23.519Z,2.67
2023-02-09T19:26:51.066Z,2.62
2023-02-09T19:29:18.780Z,2.54
2023-02-09T19:31:46.587Z,2.50
2023-02-09T19:34:14.689Z,2.43
2023-02-09T19:36:43.930Z,2.50
2023-02-09T19:39:12.695Z,2.51
2023-02-09T19:41:40.810Z,2.45
2023-02-09T19:44:08.637Z,2.54
2023-02-09T19:46:36.718Z,2.65
2023-02-09T19:49:04.511Z,2.63
2023-02-09T19:51:32.572Z,2.62
2023-02-09T19:54:00.737Z,2.48
2023-02-09T19:56:29.854Z,2.57
2023-02-09T19:58:57.962Z,2.56
2023-02-09T20:01:27.071Z,2.57
2023-02-09T20:03:54.773Z,2.55
2023-02-09T20:06:22.969Z,2.35
2023-02-09T20:08:51.770Z,2.29
2023-02-09T20:11:20.738Z,2.21
2023-02-09T20:13:52.743Z,2.15
2023-02-09T20:16:24.819Z,2.21
2023-02-09T20:18:53.970Z,2.06
2023-02-09T20:21:23.778Z,2.06
2023-02-09T20:23:56.228Z,2.14
2023-02-09T20:26:29.495Z,2.14
2023-02-09T20:28:58.777Z,2.08
2023-02-09T20:31:29.631Z,2.07
2023-02-09T20:33:58.257Z,2.15
2023-02-09T20:36:26.344Z,2.23
2023-02-09T20:38:54.030Z,2.20
2023-02-09T20:41:22.641Z,2.20
2023-02-09T20:44:09.242Z,2.28
2023-02-09T20:47:00.328Z,2.30
2023-02-09T20:49:31.389Z,2.30
2023-02-09T20:51:59.547Z,2.25
2023-02-09T20:54:27.721Z,2.23
2023-02-09T20:56:55.686Z,2.22
2023-02-09T20:59:24.171Z,2.24
2023-02-09T21:01:52.242Z,2.30
2023-02-09T21:04:19.969Z,2.30
2023-02-09T21:06:48.978Z,2.08
2023-02-09T21:09:16.814Z,1.95
2023-02-09T21:11:45.029Z,1.74
2023-02-09T21:14:21.918Z,1.64
2023-02-09T21:17:00.861Z,1.46
2023-02-09T21:19:29.631Z,1.48
2023-02-09T21:21:57.763Z,1.39
2023-02-09T21:24:26.078Z,1.29
2023-02-09T21:26:53.895Z,1.29
2023-02-09T21:29:21.801Z,1.18
2023-02-09T21:31:51.381Z,1.27
2023-02-09T21:34:19.810Z,1.41
2023-02-09T21:36:47.777Z,1.40
2023-02-09T21:39:16.318Z,1.40
2023-02-09T21:42:03.037Z,1.24
2023-02-09T21:44:31.766Z,1.27
2023-02-09T21:47:00.686Z,1.40
2023-02-09T21:49:31.780Z,1.44
2023-02-09T21:52:00.466Z,1.42
2023-02-09T21:54:33.197Z,1.19
2023-02-09T21:57:02.253Z,1.24
2023-02-09T21:59:30.176Z,1.36
2023-02-09T22:01:58.783Z,1.28
2023-02-09T22:04:26.410Z,1.28
2023-02-09T22:06:54.738Z,1.01
2023-02-09T22:09:24.025Z,0.93
2023-02-09T22:11:52.015Z,1.04
2023-02-09T22:14:20.107Z,0.78
2023-02-09T22:16:47.671Z,0.70
2023-02-09T22:19:15.449Z,0.69
2023-02-09T22:21:43.504Z,0.71
2023-02-09T22:24:13.840Z,0.63
2023-02-09T22:26:41.925Z,0.53
2023-02-09T22:29:11.891Z,0.61
2023-02-09T22:31:43.378Z,0.71
2023-02-09T22:34:11.722Z,0.65
2023-02-09T22:36:39.906Z,0.73
2023-02-09T22:39:08.752Z,0.67
2023-02-09T22:41:37.581Z,0.65
2023-02-09T22:44:08.461Z,0.56
2023-02-09T22:46:38.564Z,0.48
2023-02-09T22:49:09.835Z,0.63
2023-02-09T22:51:37.560Z,0.64
2023-02-09T22:54:06.540Z,0.69
2023-02-09T22:56:34.195Z,0.49
2023-02-09T22:59:02.342Z,0.48
2023-02-09T23:01:30.768Z,0.48
2023-02-09T23:03:58.948Z,0.37
2023-02-09T23:06:30.011Z,0.36
2023-02-09T23:09:03.035Z,0.19
2023-02-09T23:11:32.065Z,0.09
2023-02-09T23:14:09.138Z,0.15
2023-02-09T23:16:40.787Z,0.08
2023-02-09T23:19:13.034Z,0.02
2023-02-09T23:21:43.595Z,0.18
2023-02-09T23:24:12.718Z,0.23
2023-02-09T23:26:41.531Z,0.12
2023-02-09T23:29:13.065Z,0.09
2023-02-09T23:31:41.550Z,0.08
2023-02-09T23:34:13.787Z,0.01
2023-02-09T23:36:41.666Z,-0.10
2023-02-09T23:39:13.651Z,-0.08
2023-02-09T23:41:42.241Z,-0.11
2023-02-09T23:44:11.569Z,-0.14
2023-02-09T23:46:39.919Z,-0.03
2023-02-09T23:49:07.509Z,-0.03
2023-02-09T23:51:36.695Z,0.02
2023-02-09T23:54:06.299Z,-0.11
2023-02-09T23:56:37.374Z,-0.24
2023-02-09T23:59:12.028Z,-0.29
